<?xml version="1.0" encoding="UTF-8" standalone="no" ?>
<gpx xmlns="http://www.topografix.com/GPX/1/1" xmlns:xsi="http://www.w3.org/2001/XMLSchema-instance" xsi:schemaLocation="http://www.topografix.com/GPX/1/1 http://www.topografix.com/GPX/1/1/gpx.xsd" version="1.1" creator="VisuGPX - https://www.visugpx.com">
  <metadata>
    <name>Sainte Victoire</name>
    <desc><![CDATA[Circuit 3 jours montagne Ste Victoire]]></desc>
  </metadata>
  <trk>
    <name><![CDATA[Rians JOUQUES 2013-05-09 10:48]]></name>
    <trkseg>
      <trkpt lat="43.63387" lon="5.79115">
        <ele>385.09997558594</ele>
        <time>2013-05-09T08:50:55Z</time>
      </trkpt>
      <trkpt lat="43.63379" lon="5.79129">
        <ele>368.09997558594</ele>
        <time>2013-05-09T08:51:29Z</time>
      </trkpt>
      <trkpt lat="43.63371" lon="5.79111">
        <ele>391.40002441406</ele>
        <time>2013-05-09T08:51:52Z</time>
      </trkpt>
      <trkpt lat="43.63371" lon="5.79066">
        <ele>383.09997558594</ele>
        <time>2013-05-09T08:53:01Z</time>
      </trkpt>
      <trkpt lat="43.6336" lon="5.79074">
        <ele>381.59997558594</ele>
        <time>2013-05-09T08:53:24Z</time>
      </trkpt>
      <trkpt lat="43.63372" lon="5.79075">
        <ele>379.20001220703</ele>
        <time>2013-05-09T08:53:51Z</time>
      </trkpt>
      <trkpt lat="43.63411" lon="5.79064">
        <ele>395</ele>
        <time>2013-05-09T08:54:21Z</time>
      </trkpt>
      <trkpt lat="43.63443" lon="5.79054">
        <ele>393.40002441406</ele>
        <time>2013-05-09T08:54:44Z</time>
      </trkpt>
      <trkpt lat="43.63478" lon="5.79069">
        <ele>408</ele>
        <time>2013-05-09T08:55:06Z</time>
      </trkpt>
      <trkpt lat="43.63512" lon="5.79044">
        <ele>387.20001220703</ele>
        <time>2013-05-09T08:55:32Z</time>
      </trkpt>
      <trkpt lat="43.63544" lon="5.79031">
        <ele>383.20001220703</ele>
        <time>2013-05-09T08:55:55Z</time>
      </trkpt>
      <trkpt lat="43.63572" lon="5.79039">
        <ele>392.5</ele>
        <time>2013-05-09T08:56:24Z</time>
      </trkpt>
      <trkpt lat="43.63588" lon="5.79051">
        <ele>379.90002441406</ele>
        <time>2013-05-09T08:56:50Z</time>
      </trkpt>
      <trkpt lat="43.63601" lon="5.7906">
        <ele>377.90002441406</ele>
        <time>2013-05-09T08:57:13Z</time>
      </trkpt>
      <trkpt lat="43.6361" lon="5.79075">
        <ele>359.29998779297</ele>
        <time>2013-05-09T08:58:58Z</time>
      </trkpt>
      <trkpt lat="43.63608" lon="5.79062">
        <ele>361.20001220703</ele>
        <time>2013-05-09T08:59:21Z</time>
      </trkpt>
      <trkpt lat="43.63605" lon="5.79085">
        <ele>370.90002441406</ele>
        <time>2013-05-09T08:59:53Z</time>
      </trkpt>
      <trkpt lat="43.63626" lon="5.79088">
        <ele>354.09997558594</ele>
        <time>2013-05-09T09:00:21Z</time>
      </trkpt>
      <trkpt lat="43.63664" lon="5.79077">
        <ele>351.70001220703</ele>
        <time>2013-05-09T09:00:47Z</time>
      </trkpt>
      <trkpt lat="43.63698" lon="5.79067">
        <ele>353.09997558594</ele>
        <time>2013-05-09T09:01:10Z</time>
      </trkpt>
      <trkpt lat="43.63732" lon="5.79058">
        <ele>349.29998779297</ele>
        <time>2013-05-09T09:01:34Z</time>
      </trkpt>
      <trkpt lat="43.63772" lon="5.79045">
        <ele>347.70001220703</ele>
        <time>2013-05-09T09:01:58Z</time>
      </trkpt>
      <trkpt lat="43.63822" lon="5.79035">
        <ele>350.09997558594</ele>
        <time>2013-05-09T09:02:27Z</time>
      </trkpt>
      <trkpt lat="43.63864" lon="5.79024">
        <ele>352.70001220703</ele>
        <time>2013-05-09T09:02:51Z</time>
      </trkpt>
      <trkpt lat="43.63895" lon="5.79019">
        <ele>351.40002441406</ele>
        <time>2013-05-09T09:03:14Z</time>
      </trkpt>
      <trkpt lat="43.63932" lon="5.79007">
        <ele>353</ele>
        <time>2013-05-09T09:03:39Z</time>
      </trkpt>
      <trkpt lat="43.63978" lon="5.78998">
        <ele>354</ele>
        <time>2013-05-09T09:04:06Z</time>
      </trkpt>
      <trkpt lat="43.64012" lon="5.78986">
        <ele>353.79998779297</ele>
        <time>2013-05-09T09:04:29Z</time>
      </trkpt>
      <trkpt lat="43.6405" lon="5.78975">
        <ele>353.29998779297</ele>
        <time>2013-05-09T09:04:53Z</time>
      </trkpt>
      <trkpt lat="43.6409" lon="5.78963">
        <ele>350.09997558594</ele>
        <time>2013-05-09T09:05:21Z</time>
      </trkpt>
      <trkpt lat="43.64138" lon="5.78954">
        <ele>357</ele>
        <time>2013-05-09T09:05:46Z</time>
      </trkpt>
      <trkpt lat="43.6419" lon="5.78937">
        <ele>352.5</ele>
        <time>2013-05-09T09:06:20Z</time>
      </trkpt>
      <trkpt lat="43.64222" lon="5.78916">
        <ele>351</ele>
        <time>2013-05-09T09:06:48Z</time>
      </trkpt>
      <trkpt lat="43.64242" lon="5.78912">
        <ele>353.09997558594</ele>
        <time>2013-05-09T09:07:19Z</time>
      </trkpt>
      <trkpt lat="43.6428" lon="5.78876">
        <ele>361.79998779297</ele>
        <time>2013-05-09T09:07:53Z</time>
      </trkpt>
      <trkpt lat="43.64305" lon="5.78823">
        <ele>372</ele>
        <time>2013-05-09T09:08:28Z</time>
      </trkpt>
      <trkpt lat="43.64316" lon="5.78757">
        <ele>370</ele>
        <time>2013-05-09T09:09:03Z</time>
      </trkpt>
      <trkpt lat="43.64347" lon="5.78712">
        <ele>371.29998779297</ele>
        <time>2013-05-09T09:09:37Z</time>
      </trkpt>
      <trkpt lat="43.64396" lon="5.78694">
        <ele>375.90002441406</ele>
        <time>2013-05-09T09:10:12Z</time>
      </trkpt>
      <trkpt lat="43.64435" lon="5.78654">
        <ele>372</ele>
        <time>2013-05-09T09:10:43Z</time>
      </trkpt>
      <trkpt lat="43.64473" lon="5.78638">
        <ele>374.5</ele>
        <time>2013-05-09T09:11:16Z</time>
      </trkpt>
      <trkpt lat="43.64504" lon="5.78618">
        <ele>385.20001220703</ele>
        <time>2013-05-09T09:11:52Z</time>
      </trkpt>
      <trkpt lat="43.64518" lon="5.78636">
        <ele>380.09997558594</ele>
        <time>2013-05-09T09:12:21Z</time>
      </trkpt>
      <trkpt lat="43.64565" lon="5.78641">
        <ele>381.20001220703</ele>
        <time>2013-05-09T09:12:54Z</time>
      </trkpt>
      <trkpt lat="43.64612" lon="5.78646">
        <ele>384.90002441406</ele>
        <time>2013-05-09T09:13:28Z</time>
      </trkpt>
      <trkpt lat="43.64658" lon="5.78661">
        <ele>382.40002441406</ele>
        <time>2013-05-09T09:14:02Z</time>
      </trkpt>
      <trkpt lat="43.64711" lon="5.78685">
        <ele>389.29998779297</ele>
        <time>2013-05-09T09:14:36Z</time>
      </trkpt>
      <trkpt lat="43.64752" lon="5.78702">
        <ele>385.90002441406</ele>
        <time>2013-05-09T09:15:11Z</time>
      </trkpt>
      <trkpt lat="43.64776" lon="5.78746">
        <ele>402.70001220703</ele>
        <time>2013-05-09T09:15:45Z</time>
      </trkpt>
      <trkpt lat="43.64811" lon="5.78758">
        <ele>393.20001220703</ele>
        <time>2013-05-09T09:16:08Z</time>
      </trkpt>
      <trkpt lat="43.64832" lon="5.78773">
        <ele>398.20001220703</ele>
        <time>2013-05-09T09:16:40Z</time>
      </trkpt>
      <trkpt lat="43.6482" lon="5.78815">
        <ele>402.70001220703</ele>
        <time>2013-05-09T09:17:09Z</time>
      </trkpt>
      <trkpt lat="43.64842" lon="5.78832">
        <ele>404</ele>
        <time>2013-05-09T09:17:34Z</time>
      </trkpt>
      <trkpt lat="43.64872" lon="5.78811">
        <ele>409.59997558594</ele>
        <time>2013-05-09T09:18:05Z</time>
      </trkpt>
      <trkpt lat="43.64913" lon="5.78819">
        <ele>401.90002441406</ele>
        <time>2013-05-09T09:18:31Z</time>
      </trkpt>
      <trkpt lat="43.64951" lon="5.7882">
        <ele>400.79998779297</ele>
        <time>2013-05-09T09:19:00Z</time>
      </trkpt>
      <trkpt lat="43.6498" lon="5.78791">
        <ele>412</ele>
        <time>2013-05-09T09:19:35Z</time>
      </trkpt>
      <trkpt lat="43.64998" lon="5.78766">
        <ele>390</ele>
        <time>2013-05-09T09:19:59Z</time>
      </trkpt>
      <trkpt lat="43.65016" lon="5.78702">
        <ele>392.79998779297</ele>
        <time>2013-05-09T09:20:33Z</time>
      </trkpt>
      <trkpt lat="43.65014" lon="5.78629">
        <ele>407.59997558594</ele>
        <time>2013-05-09T09:21:08Z</time>
      </trkpt>
      <trkpt lat="43.64996" lon="5.78574">
        <ele>417.59997558594</ele>
        <time>2013-05-09T09:21:41Z</time>
      </trkpt>
      <trkpt lat="43.64969" lon="5.78499">
        <ele>426.20001220703</ele>
        <time>2013-05-09T09:22:13Z</time>
      </trkpt>
      <trkpt lat="43.64958" lon="5.78465">
        <ele>409.70001220703</ele>
        <time>2013-05-09T09:22:41Z</time>
      </trkpt>
      <trkpt lat="43.64969" lon="5.78414">
        <ele>405.29998779297</ele>
        <time>2013-05-09T09:23:07Z</time>
      </trkpt>
      <trkpt lat="43.64976" lon="5.78364">
        <ele>408</ele>
        <time>2013-05-09T09:23:33Z</time>
      </trkpt>
      <trkpt lat="43.64986" lon="5.78317">
        <ele>401.29998779297</ele>
        <time>2013-05-09T09:23:56Z</time>
      </trkpt>
      <trkpt lat="43.64999" lon="5.7828">
        <ele>403.5</ele>
        <time>2013-05-09T09:24:19Z</time>
      </trkpt>
      <trkpt lat="43.6498" lon="5.78213">
        <ele>421.5</ele>
        <time>2013-05-09T09:24:50Z</time>
      </trkpt>
      <trkpt lat="43.64964" lon="5.78156">
        <ele>414.90002441406</ele>
        <time>2013-05-09T09:25:20Z</time>
      </trkpt>
      <trkpt lat="43.6496" lon="5.78106">
        <ele>403.09997558594</ele>
        <time>2013-05-09T09:25:45Z</time>
      </trkpt>
      <trkpt lat="43.64926" lon="5.78068">
        <ele>431.79998779297</ele>
        <time>2013-05-09T09:26:15Z</time>
      </trkpt>
      <trkpt lat="43.64962" lon="5.78043">
        <ele>400.20001220703</ele>
        <time>2013-05-09T09:26:39Z</time>
      </trkpt>
      <trkpt lat="43.64992" lon="5.78006">
        <ele>426.29998779297</ele>
        <time>2013-05-09T09:27:10Z</time>
      </trkpt>
      <trkpt lat="43.6504" lon="5.77974">
        <ele>398.59997558594</ele>
        <time>2013-05-09T09:27:42Z</time>
      </trkpt>
      <trkpt lat="43.65064" lon="5.77931">
        <ele>410.59997558594</ele>
        <time>2013-05-09T09:28:12Z</time>
      </trkpt>
      <trkpt lat="43.65071" lon="5.77884">
        <ele>400.40002441406</ele>
        <time>2013-05-09T09:28:38Z</time>
      </trkpt>
      <trkpt lat="43.65098" lon="5.77822">
        <ele>394.40002441406</ele>
        <time>2013-05-09T09:29:10Z</time>
      </trkpt>
      <trkpt lat="43.65127" lon="5.7779">
        <ele>402.59997558594</ele>
        <time>2013-05-09T09:29:36Z</time>
      </trkpt>
      <trkpt lat="43.65167" lon="5.77758">
        <ele>391.5</ele>
        <time>2013-05-09T09:30:00Z</time>
      </trkpt>
      <trkpt lat="43.6519" lon="5.77743">
        <ele>411.20001220703</ele>
        <time>2013-05-09T09:30:25Z</time>
      </trkpt>
      <trkpt lat="43.65221" lon="5.77728">
        <ele>392.40002441406</ele>
        <time>2013-05-09T09:30:48Z</time>
      </trkpt>
      <trkpt lat="43.65262" lon="5.77717">
        <ele>395.29998779297</ele>
        <time>2013-05-09T09:31:12Z</time>
      </trkpt>
      <trkpt lat="43.65294" lon="5.77697">
        <ele>388.09997558594</ele>
        <time>2013-05-09T09:31:37Z</time>
      </trkpt>
      <trkpt lat="43.65323" lon="5.77657">
        <ele>387.29998779297</ele>
        <time>2013-05-09T09:32:11Z</time>
      </trkpt>
      <trkpt lat="43.65366" lon="5.77616">
        <ele>422.59997558594</ele>
        <time>2013-05-09T09:32:45Z</time>
      </trkpt>
      <trkpt lat="43.65396" lon="5.77624">
        <ele>434.29998779297</ele>
        <time>2013-05-09T09:33:10Z</time>
      </trkpt>
      <trkpt lat="43.65434" lon="5.77647">
        <ele>432.40002441406</ele>
        <time>2013-05-09T09:33:38Z</time>
      </trkpt>
      <trkpt lat="43.6547" lon="5.77659">
        <ele>433.90002441406</ele>
        <time>2013-05-09T09:34:03Z</time>
      </trkpt>
      <trkpt lat="43.65498" lon="5.77677">
        <ele>432.29998779297</ele>
        <time>2013-05-09T09:34:26Z</time>
      </trkpt>
      <trkpt lat="43.65548" lon="5.77645">
        <ele>389.40002441406</ele>
        <time>2013-05-09T09:34:59Z</time>
      </trkpt>
      <trkpt lat="43.65634" lon="5.77597">
        <ele>382.5</ele>
        <time>2013-05-09T09:35:33Z</time>
      </trkpt>
      <trkpt lat="43.65717" lon="5.77548">
        <ele>390</ele>
        <time>2013-05-09T09:35:58Z</time>
      </trkpt>
      <trkpt lat="43.6577" lon="5.7755">
        <ele>393.70001220703</ele>
        <time>2013-05-09T09:36:28Z</time>
      </trkpt>
      <trkpt lat="43.65782" lon="5.77559">
        <ele>393.20001220703</ele>
        <time>2013-05-09T09:36:50Z</time>
      </trkpt>
      <trkpt lat="43.65794" lon="5.77546">
        <ele>376.70001220703</ele>
        <time>2013-05-09T09:37:14Z</time>
      </trkpt>
      <trkpt lat="43.65779" lon="5.77562">
        <ele>399.70001220703</ele>
        <time>2013-05-09T09:37:37Z</time>
      </trkpt>
      <trkpt lat="43.65774" lon="5.77573">
        <ele>385.20001220703</ele>
        <time>2013-05-09T09:38:29Z</time>
      </trkpt>
      <trkpt lat="43.65783" lon="5.77562">
        <ele>388.70001220703</ele>
        <time>2013-05-09T09:38:59Z</time>
      </trkpt>
      <trkpt lat="43.65796" lon="5.77571">
        <ele>386.29998779297</ele>
        <time>2013-05-09T09:40:22Z</time>
      </trkpt>
      <trkpt lat="43.65825" lon="5.77546">
        <ele>382.20001220703</ele>
        <time>2013-05-09T09:40:57Z</time>
      </trkpt>
      <trkpt lat="43.65854" lon="5.77517">
        <ele>390.59997558594</ele>
        <time>2013-05-09T09:41:19Z</time>
      </trkpt>
      <trkpt lat="43.65875" lon="5.77471">
        <ele>393.90002441406</ele>
        <time>2013-05-09T09:41:50Z</time>
      </trkpt>
      <trkpt lat="43.65887" lon="5.77412">
        <ele>386.59997558594</ele>
        <time>2013-05-09T09:42:24Z</time>
      </trkpt>
      <trkpt lat="43.65892" lon="5.77332">
        <ele>385.5</ele>
        <time>2013-05-09T09:42:59Z</time>
      </trkpt>
      <trkpt lat="43.65913" lon="5.77274">
        <ele>386.09997558594</ele>
        <time>2013-05-09T09:43:31Z</time>
      </trkpt>
      <trkpt lat="43.65923" lon="5.77223">
        <ele>386.5</ele>
        <time>2013-05-09T09:43:59Z</time>
      </trkpt>
      <trkpt lat="43.65923" lon="5.77151">
        <ele>378.5</ele>
        <time>2013-05-09T09:44:34Z</time>
      </trkpt>
      <trkpt lat="43.65936" lon="5.77108">
        <ele>373.40002441406</ele>
        <time>2013-05-09T09:44:55Z</time>
      </trkpt>
      <trkpt lat="43.65957" lon="5.77059">
        <ele>394.09997558594</ele>
        <time>2013-05-09T09:45:18Z</time>
      </trkpt>
      <trkpt lat="43.65985" lon="5.77026">
        <ele>384.09997558594</ele>
        <time>2013-05-09T09:45:41Z</time>
      </trkpt>
      <trkpt lat="43.66006" lon="5.76966">
        <ele>377.90002441406</ele>
        <time>2013-05-09T09:46:16Z</time>
      </trkpt>
      <trkpt lat="43.66029" lon="5.76906">
        <ele>383.59997558594</ele>
        <time>2013-05-09T09:46:44Z</time>
      </trkpt>
      <trkpt lat="43.66029" lon="5.76865">
        <ele>373.90002441406</ele>
        <time>2013-05-09T09:47:06Z</time>
      </trkpt>
      <trkpt lat="43.66012" lon="5.7681">
        <ele>393.29998779297</ele>
        <time>2013-05-09T09:47:32Z</time>
      </trkpt>
      <trkpt lat="43.65977" lon="5.76795">
        <ele>398.59997558594</ele>
        <time>2013-05-09T09:47:56Z</time>
      </trkpt>
      <trkpt lat="43.65969" lon="5.76775">
        <ele>372</ele>
        <time>2013-05-09T09:48:21Z</time>
      </trkpt>
      <trkpt lat="43.65968" lon="5.76713">
        <ele>368.59997558594</ele>
        <time>2013-05-09T09:48:49Z</time>
      </trkpt>
      <trkpt lat="43.65953" lon="5.76627">
        <ele>363.29998779297</ele>
        <time>2013-05-09T09:49:13Z</time>
      </trkpt>
      <trkpt lat="43.65937" lon="5.76595">
        <ele>370.70001220703</ele>
        <time>2013-05-09T09:49:34Z</time>
      </trkpt>
      <trkpt lat="43.65911" lon="5.76551">
        <ele>379.79998779297</ele>
        <time>2013-05-09T09:49:57Z</time>
      </trkpt>
      <trkpt lat="43.65906" lon="5.76511">
        <ele>351.70001220703</ele>
        <time>2013-05-09T09:50:21Z</time>
      </trkpt>
      <trkpt lat="43.65899" lon="5.76463">
        <ele>345.20001220703</ele>
        <time>2013-05-09T09:50:44Z</time>
      </trkpt>
      <trkpt lat="43.65892" lon="5.76326">
        <ele>351.5</ele>
        <time>2013-05-09T09:51:09Z</time>
      </trkpt>
      <trkpt lat="43.65878" lon="5.76293">
        <ele>360.09997558594</ele>
        <time>2013-05-09T09:51:30Z</time>
      </trkpt>
      <trkpt lat="43.65881" lon="5.76241">
        <ele>351.79998779297</ele>
        <time>2013-05-09T09:51:53Z</time>
      </trkpt>
      <trkpt lat="43.65873" lon="5.76209">
        <ele>356</ele>
        <time>2013-05-09T09:52:16Z</time>
      </trkpt>
      <trkpt lat="43.65861" lon="5.76156">
        <ele>383.29998779297</ele>
        <time>2013-05-09T09:52:39Z</time>
      </trkpt>
      <trkpt lat="43.65865" lon="5.76129">
        <ele>365.79998779297</ele>
        <time>2013-05-09T09:53:02Z</time>
      </trkpt>
      <trkpt lat="43.65852" lon="5.76087">
        <ele>368.20001220703</ele>
        <time>2013-05-09T09:53:33Z</time>
      </trkpt>
      <trkpt lat="43.65851" lon="5.7605">
        <ele>364.5</ele>
        <time>2013-05-09T09:54:01Z</time>
      </trkpt>
      <trkpt lat="43.65836" lon="5.75996">
        <ele>344.79998779297</ele>
        <time>2013-05-09T09:54:33Z</time>
      </trkpt>
      <trkpt lat="43.65814" lon="5.75913">
        <ele>367.29998779297</ele>
        <time>2013-05-09T09:55:07Z</time>
      </trkpt>
      <trkpt lat="43.65811" lon="5.75847">
        <ele>366.59997558594</ele>
        <time>2013-05-09T09:55:37Z</time>
      </trkpt>
      <trkpt lat="43.6582" lon="5.75787">
        <ele>368.70001220703</ele>
        <time>2013-05-09T09:56:10Z</time>
      </trkpt>
      <trkpt lat="43.65813" lon="5.75771">
        <ele>394.70001220703</ele>
        <time>2013-05-09T09:56:46Z</time>
      </trkpt>
      <trkpt lat="43.65803" lon="5.75764">
        <ele>368.29998779297</ele>
        <time>2013-05-09T09:57:20Z</time>
      </trkpt>
      <trkpt lat="43.65782" lon="5.7573">
        <ele>368.40002441406</ele>
        <time>2013-05-09T09:57:53Z</time>
      </trkpt>
      <trkpt lat="43.65811" lon="5.75696">
        <ele>354.79998779297</ele>
        <time>2013-05-09T09:58:17Z</time>
      </trkpt>
      <trkpt lat="43.65802" lon="5.75651">
        <ele>368.40002441406</ele>
        <time>2013-05-09T09:58:49Z</time>
      </trkpt>
      <trkpt lat="43.6576" lon="5.75574">
        <ele>362.90002441406</ele>
        <time>2013-05-09T09:59:13Z</time>
      </trkpt>
      <trkpt lat="43.65694" lon="5.75555">
        <ele>363.20001220703</ele>
        <time>2013-05-09T09:59:34Z</time>
      </trkpt>
      <trkpt lat="43.65673" lon="5.75528">
        <ele>371.20001220703</ele>
        <time>2013-05-09T10:00:03Z</time>
      </trkpt>
      <trkpt lat="43.65648" lon="5.75493">
        <ele>379.79998779297</ele>
        <time>2013-05-09T10:00:31Z</time>
      </trkpt>
      <trkpt lat="43.65632" lon="5.75468">
        <ele>368.5</ele>
        <time>2013-05-09T10:00:53Z</time>
      </trkpt>
      <trkpt lat="43.65602" lon="5.75421">
        <ele>378.59997558594</ele>
        <time>2013-05-09T10:01:26Z</time>
      </trkpt>
      <trkpt lat="43.65583" lon="5.75407">
        <ele>386.79998779297</ele>
        <time>2013-05-09T10:01:48Z</time>
      </trkpt>
      <trkpt lat="43.65561" lon="5.75383">
        <ele>408.90002441406</ele>
        <time>2013-05-09T10:02:12Z</time>
      </trkpt>
      <trkpt lat="43.65544" lon="5.75361">
        <ele>394.5</ele>
        <time>2013-05-09T10:02:35Z</time>
      </trkpt>
      <trkpt lat="43.65528" lon="5.75339">
        <ele>391.20001220703</ele>
        <time>2013-05-09T10:02:58Z</time>
      </trkpt>
      <trkpt lat="43.65505" lon="5.75314">
        <ele>394.29998779297</ele>
        <time>2013-05-09T10:03:20Z</time>
      </trkpt>
      <trkpt lat="43.65476" lon="5.75307">
        <ele>370.29998779297</ele>
        <time>2013-05-09T10:03:41Z</time>
      </trkpt>
      <trkpt lat="43.65455" lon="5.75287">
        <ele>398.70001220703</ele>
        <time>2013-05-09T10:04:03Z</time>
      </trkpt>
      <trkpt lat="43.65423" lon="5.75273">
        <ele>397.09997558594</ele>
        <time>2013-05-09T10:04:26Z</time>
      </trkpt>
      <trkpt lat="43.65396" lon="5.75248">
        <ele>391.90002441406</ele>
        <time>2013-05-09T10:04:47Z</time>
      </trkpt>
      <trkpt lat="43.65363" lon="5.75242">
        <ele>413.20001220703</ele>
        <time>2013-05-09T10:05:11Z</time>
      </trkpt>
      <trkpt lat="43.6534" lon="5.75234">
        <ele>426.5</ele>
        <time>2013-05-09T10:05:37Z</time>
      </trkpt>
      <trkpt lat="43.65309" lon="5.75232">
        <ele>420.29998779297</ele>
        <time>2013-05-09T10:06:01Z</time>
      </trkpt>
      <trkpt lat="43.65317" lon="5.75218">
        <ele>410.5</ele>
        <time>2013-05-09T10:06:24Z</time>
      </trkpt>
      <trkpt lat="43.65321" lon="5.75194">
        <ele>417.20001220703</ele>
        <time>2013-05-09T10:06:47Z</time>
      </trkpt>
      <trkpt lat="43.6534" lon="5.75158">
        <ele>418.59997558594</ele>
        <time>2013-05-09T10:07:11Z</time>
      </trkpt>
      <trkpt lat="43.65369" lon="5.75131">
        <ele>436.40002441406</ele>
        <time>2013-05-09T10:07:37Z</time>
      </trkpt>
      <trkpt lat="43.65367" lon="5.75097">
        <ele>424.5</ele>
        <time>2013-05-09T10:08:03Z</time>
      </trkpt>
      <trkpt lat="43.65352" lon="5.7506">
        <ele>420.40002441406</ele>
        <time>2013-05-09T10:08:32Z</time>
      </trkpt>
      <trkpt lat="43.65329" lon="5.75012">
        <ele>426</ele>
        <time>2013-05-09T10:09:05Z</time>
      </trkpt>
      <trkpt lat="43.6529" lon="5.74973">
        <ele>431.29998779297</ele>
        <time>2013-05-09T10:09:33Z</time>
      </trkpt>
      <trkpt lat="43.65247" lon="5.74958">
        <ele>430</ele>
        <time>2013-05-09T10:09:59Z</time>
      </trkpt>
      <trkpt lat="43.65247" lon="5.74907">
        <ele>425.09997558594</ele>
        <time>2013-05-09T10:10:30Z</time>
      </trkpt>
      <trkpt lat="43.65262" lon="5.74862">
        <ele>422.90002441406</ele>
        <time>2013-05-09T10:10:54Z</time>
      </trkpt>
      <trkpt lat="43.65253" lon="5.74817">
        <ele>425.70001220703</ele>
        <time>2013-05-09T10:11:18Z</time>
      </trkpt>
      <trkpt lat="43.65236" lon="5.74775">
        <ele>414.5</ele>
        <time>2013-05-09T10:11:41Z</time>
      </trkpt>
      <trkpt lat="43.65226" lon="5.74728">
        <ele>429.70001220703</ele>
        <time>2013-05-09T10:12:10Z</time>
      </trkpt>
      <trkpt lat="43.65206" lon="5.74693">
        <ele>430.79998779297</ele>
        <time>2013-05-09T10:12:35Z</time>
      </trkpt>
      <trkpt lat="43.65182" lon="5.74649">
        <ele>429.90002441406</ele>
        <time>2013-05-09T10:13:04Z</time>
      </trkpt>
      <trkpt lat="43.6517" lon="5.74602">
        <ele>426.79998779297</ele>
        <time>2013-05-09T10:13:31Z</time>
      </trkpt>
      <trkpt lat="43.65155" lon="5.74528">
        <ele>427.90002441406</ele>
        <time>2013-05-09T10:14:05Z</time>
      </trkpt>
      <trkpt lat="43.65167" lon="5.7447">
        <ele>430.40002441406</ele>
        <time>2013-05-09T10:14:35Z</time>
      </trkpt>
      <trkpt lat="43.6516" lon="5.7441">
        <ele>429.09997558594</ele>
        <time>2013-05-09T10:15:09Z</time>
      </trkpt>
      <trkpt lat="43.65143" lon="5.7436">
        <ele>437.5</ele>
        <time>2013-05-09T10:15:38Z</time>
      </trkpt>
      <trkpt lat="43.65125" lon="5.74323">
        <ele>445.20001220703</ele>
        <time>2013-05-09T10:16:04Z</time>
      </trkpt>
      <trkpt lat="43.65095" lon="5.7428">
        <ele>449</ele>
        <time>2013-05-09T10:16:37Z</time>
      </trkpt>
      <trkpt lat="43.6507" lon="5.74251">
        <ele>447.09997558594</ele>
        <time>2013-05-09T10:17:06Z</time>
      </trkpt>
      <trkpt lat="43.65028" lon="5.74232">
        <ele>431.70001220703</ele>
        <time>2013-05-09T10:17:30Z</time>
      </trkpt>
      <trkpt lat="43.65018" lon="5.74232">
        <ele>427.20001220703</ele>
        <time>2013-05-09T10:18:16Z</time>
      </trkpt>
      <trkpt lat="43.65009" lon="5.7423">
        <ele>426.09997558594</ele>
        <time>2013-05-09T10:19:06Z</time>
      </trkpt>
      <trkpt lat="43.6499" lon="5.74239">
        <ele>440</ele>
        <time>2013-05-09T10:20:29Z</time>
      </trkpt>
      <trkpt lat="43.65008" lon="5.74233">
        <ele>427.20001220703</ele>
        <time>2013-05-09T10:21:04Z</time>
      </trkpt>
      <trkpt lat="43.65" lon="5.74226">
        <ele>411.29998779297</ele>
        <time>2013-05-09T10:21:28Z</time>
      </trkpt>
      <trkpt lat="43.6499" lon="5.7421">
        <ele>428.70001220703</ele>
        <time>2013-05-09T10:21:51Z</time>
      </trkpt>
      <trkpt lat="43.65003" lon="5.74226">
        <ele>427</ele>
        <time>2013-05-09T10:22:22Z</time>
      </trkpt>
      <trkpt lat="43.65027" lon="5.742">
        <ele>395.90002441406</ele>
        <time>2013-05-09T11:54:22Z</time>
      </trkpt>
      <trkpt lat="43.65003" lon="5.74239">
        <ele>463</ele>
        <time>2013-05-09T11:54:46Z</time>
      </trkpt>
      <trkpt lat="43.65013" lon="5.74251">
        <ele>468</ele>
        <time>2013-05-09T11:55:17Z</time>
      </trkpt>
      <trkpt lat="43.65027" lon="5.74249">
        <ele>468.90002441406</ele>
        <time>2013-05-09T11:55:42Z</time>
      </trkpt>
      <trkpt lat="43.6504" lon="5.74233">
        <ele>469.79998779297</ele>
        <time>2013-05-09T11:56:05Z</time>
      </trkpt>
      <trkpt lat="43.65054" lon="5.74187">
        <ele>472</ele>
        <time>2013-05-09T11:56:35Z</time>
      </trkpt>
      <trkpt lat="43.65072" lon="5.74141">
        <ele>465.29998779297</ele>
        <time>2013-05-09T11:57:07Z</time>
      </trkpt>
      <trkpt lat="43.65096" lon="5.74097">
        <ele>458.20001220703</ele>
        <time>2013-05-09T11:57:39Z</time>
      </trkpt>
      <trkpt lat="43.6511" lon="5.74069">
        <ele>447</ele>
        <time>2013-05-09T11:58:02Z</time>
      </trkpt>
      <trkpt lat="43.65138" lon="5.7404">
        <ele>445.79998779297</ele>
        <time>2013-05-09T11:58:26Z</time>
      </trkpt>
      <trkpt lat="43.65173" lon="5.74028">
        <ele>437.90002441406</ele>
        <time>2013-05-09T11:59:00Z</time>
      </trkpt>
      <trkpt lat="43.65201" lon="5.73984">
        <ele>441.5</ele>
        <time>2013-05-09T11:59:35Z</time>
      </trkpt>
      <trkpt lat="43.65214" lon="5.73967">
        <ele>428.59997558594</ele>
        <time>2013-05-09T12:00:02Z</time>
      </trkpt>
      <trkpt lat="43.65233" lon="5.73942">
        <ele>421.09997558594</ele>
        <time>2013-05-09T12:00:31Z</time>
      </trkpt>
      <trkpt lat="43.65247" lon="5.73955">
        <ele>419.29998779297</ele>
        <time>2013-05-09T12:01:05Z</time>
      </trkpt>
      <trkpt lat="43.65263" lon="5.73962">
        <ele>417.70001220703</ele>
        <time>2013-05-09T12:01:40Z</time>
      </trkpt>
      <trkpt lat="43.65291" lon="5.73917">
        <ele>415.09997558594</ele>
        <time>2013-05-09T12:02:09Z</time>
      </trkpt>
      <trkpt lat="43.65318" lon="5.73883">
        <ele>418.29998779297</ele>
        <time>2013-05-09T12:02:35Z</time>
      </trkpt>
      <trkpt lat="43.65351" lon="5.73851">
        <ele>411.79998779297</ele>
        <time>2013-05-09T12:03:09Z</time>
      </trkpt>
      <trkpt lat="43.65404" lon="5.73841">
        <ele>415.40002441406</ele>
        <time>2013-05-09T12:03:43Z</time>
      </trkpt>
      <trkpt lat="43.65443" lon="5.73835">
        <ele>406.40002441406</ele>
        <time>2013-05-09T12:04:11Z</time>
      </trkpt>
      <trkpt lat="43.65485" lon="5.73823">
        <ele>412.09997558594</ele>
        <time>2013-05-09T12:04:35Z</time>
      </trkpt>
      <trkpt lat="43.6553" lon="5.73807">
        <ele>412.29998779297</ele>
        <time>2013-05-09T12:05:02Z</time>
      </trkpt>
      <trkpt lat="43.65532" lon="5.73743">
        <ele>409.40002441406</ele>
        <time>2013-05-09T12:05:36Z</time>
      </trkpt>
      <trkpt lat="43.65568" lon="5.73688">
        <ele>404.09997558594</ele>
        <time>2013-05-09T12:06:11Z</time>
      </trkpt>
      <trkpt lat="43.65555" lon="5.73626">
        <ele>412.59997558594</ele>
        <time>2013-05-09T12:06:46Z</time>
      </trkpt>
      <trkpt lat="43.65538" lon="5.73597">
        <ele>411</ele>
        <time>2013-05-09T12:07:11Z</time>
      </trkpt>
      <trkpt lat="43.65517" lon="5.73579">
        <ele>400.29998779297</ele>
        <time>2013-05-09T12:07:35Z</time>
      </trkpt>
      <trkpt lat="43.6549" lon="5.73547">
        <ele>415.09997558594</ele>
        <time>2013-05-09T12:07:58Z</time>
      </trkpt>
      <trkpt lat="43.65462" lon="5.73501">
        <ele>422.79998779297</ele>
        <time>2013-05-09T12:08:24Z</time>
      </trkpt>
      <trkpt lat="43.65454" lon="5.73444">
        <ele>428.90002441406</ele>
        <time>2013-05-09T12:08:55Z</time>
      </trkpt>
      <trkpt lat="43.65463" lon="5.73396">
        <ele>435.09997558594</ele>
        <time>2013-05-09T12:09:27Z</time>
      </trkpt>
      <trkpt lat="43.65466" lon="5.73328">
        <ele>429</ele>
        <time>2013-05-09T12:10:02Z</time>
      </trkpt>
      <trkpt lat="43.65442" lon="5.73276">
        <ele>428.29998779297</ele>
        <time>2013-05-09T12:10:37Z</time>
      </trkpt>
      <trkpt lat="43.65405" lon="5.73238">
        <ele>426.70001220703</ele>
        <time>2013-05-09T12:11:11Z</time>
      </trkpt>
      <trkpt lat="43.65389" lon="5.73198">
        <ele>439.5</ele>
        <time>2013-05-09T12:11:38Z</time>
      </trkpt>
      <trkpt lat="43.65404" lon="5.73158">
        <ele>439.5</ele>
        <time>2013-05-09T12:12:01Z</time>
      </trkpt>
      <trkpt lat="43.65388" lon="5.73119">
        <ele>444</ele>
        <time>2013-05-09T12:12:24Z</time>
      </trkpt>
      <trkpt lat="43.65364" lon="5.73087">
        <ele>446</ele>
        <time>2013-05-09T12:12:50Z</time>
      </trkpt>
      <trkpt lat="43.65324" lon="5.73053">
        <ele>435.59997558594</ele>
        <time>2013-05-09T12:13:25Z</time>
      </trkpt>
      <trkpt lat="43.65356" lon="5.73051">
        <ele>457.5</ele>
        <time>2013-05-09T12:13:49Z</time>
      </trkpt>
      <trkpt lat="43.65397" lon="5.73065">
        <ele>468.70001220703</ele>
        <time>2013-05-09T12:14:21Z</time>
      </trkpt>
      <trkpt lat="43.65424" lon="5.73054">
        <ele>458</ele>
        <time>2013-05-09T12:14:45Z</time>
      </trkpt>
      <trkpt lat="43.6552" lon="5.73054">
        <ele>458.59997558594</ele>
        <time>2013-05-09T12:15:50Z</time>
      </trkpt>
      <trkpt lat="43.65539" lon="5.73049">
        <ele>459.09997558594</ele>
        <time>2013-05-09T12:16:25Z</time>
      </trkpt>
      <trkpt lat="43.65554" lon="5.73049">
        <ele>454</ele>
        <time>2013-05-09T12:16:59Z</time>
      </trkpt>
      <trkpt lat="43.65587" lon="5.73037">
        <ele>440.29998779297</ele>
        <time>2013-05-09T12:17:45Z</time>
      </trkpt>
      <trkpt lat="43.65605" lon="5.73022">
        <ele>436.29998779297</ele>
        <time>2013-05-09T12:18:10Z</time>
      </trkpt>
      <trkpt lat="43.65622" lon="5.73016">
        <ele>432.5</ele>
        <time>2013-05-09T12:18:41Z</time>
      </trkpt>
      <trkpt lat="43.6565" lon="5.73017">
        <ele>426.59997558594</ele>
        <time>2013-05-09T12:19:11Z</time>
      </trkpt>
      <trkpt lat="43.65677" lon="5.73014">
        <ele>414.70001220703</ele>
        <time>2013-05-09T12:19:34Z</time>
      </trkpt>
      <trkpt lat="43.65727" lon="5.73009">
        <ele>417.09997558594</ele>
        <time>2013-05-09T12:20:08Z</time>
      </trkpt>
      <trkpt lat="43.6577" lon="5.73017">
        <ele>420.20001220703</ele>
        <time>2013-05-09T12:20:41Z</time>
      </trkpt>
      <trkpt lat="43.65797" lon="5.73021">
        <ele>408.5</ele>
        <time>2013-05-09T12:21:05Z</time>
      </trkpt>
      <trkpt lat="43.65828" lon="5.73037">
        <ele>398.40002441406</ele>
        <time>2013-05-09T12:21:31Z</time>
      </trkpt>
      <trkpt lat="43.65854" lon="5.73045">
        <ele>391.5</ele>
        <time>2013-05-09T12:21:53Z</time>
      </trkpt>
      <trkpt lat="43.65883" lon="5.73073">
        <ele>389.09997558594</ele>
        <time>2013-05-09T12:22:19Z</time>
      </trkpt>
      <trkpt lat="43.65905" lon="5.73097">
        <ele>375.20001220703</ele>
        <time>2013-05-09T12:22:44Z</time>
      </trkpt>
      <trkpt lat="43.65919" lon="5.73123">
        <ele>368.09997558594</ele>
        <time>2013-05-09T12:23:06Z</time>
      </trkpt>
      <trkpt lat="43.65946" lon="5.73135">
        <ele>359.5</ele>
        <time>2013-05-09T12:23:28Z</time>
      </trkpt>
      <trkpt lat="43.65973" lon="5.73151">
        <ele>351.5</ele>
        <time>2013-05-09T12:23:51Z</time>
      </trkpt>
      <trkpt lat="43.65994" lon="5.73199">
        <ele>350.90002441406</ele>
        <time>2013-05-09T12:24:14Z</time>
      </trkpt>
      <trkpt lat="43.66015" lon="5.73222">
        <ele>341.79998779297</ele>
        <time>2013-05-09T12:24:36Z</time>
      </trkpt>
      <trkpt lat="43.66039" lon="5.73266">
        <ele>339.20001220703</ele>
        <time>2013-05-09T12:25:03Z</time>
      </trkpt>
      <trkpt lat="43.66055" lon="5.73292">
        <ele>334</ele>
        <time>2013-05-09T12:25:24Z</time>
      </trkpt>
      <trkpt lat="43.66082" lon="5.73319">
        <ele>330.90002441406</ele>
        <time>2013-05-09T12:25:46Z</time>
      </trkpt>
      <trkpt lat="43.66116" lon="5.73318">
        <ele>328.29998779297</ele>
        <time>2013-05-09T12:26:10Z</time>
      </trkpt>
      <trkpt lat="43.66148" lon="5.73326">
        <ele>328.59997558594</ele>
        <time>2013-05-09T12:26:35Z</time>
      </trkpt>
      <trkpt lat="43.66178" lon="5.73329">
        <ele>330.90002441406</ele>
        <time>2013-05-09T12:26:58Z</time>
      </trkpt>
      <trkpt lat="43.66206" lon="5.733">
        <ele>334.79998779297</ele>
        <time>2013-05-09T12:27:20Z</time>
      </trkpt>
      <trkpt lat="43.66226" lon="5.73279">
        <ele>337.20001220703</ele>
        <time>2013-05-09T12:27:41Z</time>
      </trkpt>
      <trkpt lat="43.6624" lon="5.73304">
        <ele>335.79998779297</ele>
        <time>2013-05-09T12:28:03Z</time>
      </trkpt>
      <trkpt lat="43.6626" lon="5.7333">
        <ele>324.20001220703</ele>
        <time>2013-05-09T12:28:26Z</time>
      </trkpt>
      <trkpt lat="43.6627" lon="5.7337">
        <ele>312.5</ele>
        <time>2013-05-09T12:28:47Z</time>
      </trkpt>
      <trkpt lat="43.66299" lon="5.73389">
        <ele>307.79998779297</ele>
        <time>2013-05-09T12:29:09Z</time>
      </trkpt>
      <trkpt lat="43.66335" lon="5.73382">
        <ele>305.20001220703</ele>
        <time>2013-05-09T12:29:29Z</time>
      </trkpt>
      <trkpt lat="43.66387" lon="5.73406">
        <ele>337</ele>
        <time>2013-05-09T12:29:59Z</time>
      </trkpt>
      <trkpt lat="43.66412" lon="5.7343">
        <ele>333.90002441406</ele>
        <time>2013-05-09T12:30:21Z</time>
      </trkpt>
      <trkpt lat="43.66473" lon="5.73452">
        <ele>337.90002441406</ele>
        <time>2013-05-09T12:30:51Z</time>
      </trkpt>
      <trkpt lat="43.66516" lon="5.73504">
        <ele>346</ele>
        <time>2013-05-09T12:31:23Z</time>
      </trkpt>
      <trkpt lat="43.6654" lon="5.7352">
        <ele>335.5</ele>
        <time>2013-05-09T12:31:44Z</time>
      </trkpt>
      <trkpt lat="43.66564" lon="5.73539">
        <ele>326</ele>
        <time>2013-05-09T12:32:06Z</time>
      </trkpt>
      <trkpt lat="43.66587" lon="5.73563">
        <ele>314.20001220703</ele>
        <time>2013-05-09T12:32:28Z</time>
      </trkpt>
      <trkpt lat="43.66622" lon="5.7358">
        <ele>306</ele>
        <time>2013-05-09T12:32:50Z</time>
      </trkpt>
      <trkpt lat="43.6666" lon="5.73586">
        <ele>300.79998779297</ele>
        <time>2013-05-09T12:33:13Z</time>
      </trkpt>
      <trkpt lat="43.66688" lon="5.73605">
        <ele>293.5</ele>
        <time>2013-05-09T12:33:35Z</time>
      </trkpt>
      <trkpt lat="43.66723" lon="5.73606">
        <ele>289.5</ele>
        <time>2013-05-09T12:33:59Z</time>
      </trkpt>
      <trkpt lat="43.66759" lon="5.73609">
        <ele>285.90002441406</ele>
        <time>2013-05-09T12:34:21Z</time>
      </trkpt>
      <trkpt lat="43.66789" lon="5.73621">
        <ele>283.70001220703</ele>
        <time>2013-05-09T12:34:43Z</time>
      </trkpt>
      <trkpt lat="43.66826" lon="5.73637">
        <ele>282.79998779297</ele>
        <time>2013-05-09T12:35:07Z</time>
      </trkpt>
      <trkpt lat="43.66858" lon="5.73628">
        <ele>280.79998779297</ele>
        <time>2013-05-09T12:35:27Z</time>
      </trkpt>
      <trkpt lat="43.66886" lon="5.73607">
        <ele>287.59997558594</ele>
        <time>2013-05-09T12:35:49Z</time>
      </trkpt>
      <trkpt lat="43.66921" lon="5.73598">
        <ele>291.09997558594</ele>
        <time>2013-05-09T12:36:14Z</time>
      </trkpt>
      <trkpt lat="43.66964" lon="5.73581">
        <ele>297.90002441406</ele>
        <time>2013-05-09T12:36:39Z</time>
      </trkpt>
      <trkpt lat="43.67004" lon="5.73558">
        <ele>297.90002441406</ele>
        <time>2013-05-09T12:37:00Z</time>
      </trkpt>
      <trkpt lat="43.67055" lon="5.73534">
        <ele>320.90002441406</ele>
        <time>2013-05-09T12:37:29Z</time>
      </trkpt>
      <trkpt lat="43.67081" lon="5.7352">
        <ele>320.5</ele>
        <time>2013-05-09T12:37:50Z</time>
      </trkpt>
      <trkpt lat="43.67106" lon="5.73496">
        <ele>318.79998779297</ele>
        <time>2013-05-09T12:38:12Z</time>
      </trkpt>
      <trkpt lat="43.67163" lon="5.73465">
        <ele>329.09997558594</ele>
        <time>2013-05-09T12:38:42Z</time>
      </trkpt>
      <trkpt lat="43.67195" lon="5.73439">
        <ele>300.79998779297</ele>
        <time>2013-05-09T12:39:09Z</time>
      </trkpt>
      <trkpt lat="43.67216" lon="5.73408">
        <ele>309.09997558594</ele>
        <time>2013-05-09T12:39:33Z</time>
      </trkpt>
      <trkpt lat="43.67245" lon="5.73375">
        <ele>317.90002441406</ele>
        <time>2013-05-09T12:39:56Z</time>
      </trkpt>
      <trkpt lat="43.67269" lon="5.73339">
        <ele>321.09997558594</ele>
        <time>2013-05-09T12:40:18Z</time>
      </trkpt>
      <trkpt lat="43.673" lon="5.73289">
        <ele>338.29998779297</ele>
        <time>2013-05-09T12:40:45Z</time>
      </trkpt>
      <trkpt lat="43.6731" lon="5.73227">
        <ele>314.90002441406</ele>
        <time>2013-05-09T12:41:11Z</time>
      </trkpt>
      <trkpt lat="43.67321" lon="5.73196">
        <ele>327.09997558594</ele>
        <time>2013-05-09T12:41:33Z</time>
      </trkpt>
      <trkpt lat="43.67347" lon="5.73162">
        <ele>324.40002441406</ele>
        <time>2013-05-09T12:41:54Z</time>
      </trkpt>
      <trkpt lat="43.67385" lon="5.73111">
        <ele>319.59997558594</ele>
        <time>2013-05-09T12:42:21Z</time>
      </trkpt>
      <trkpt lat="43.67404" lon="5.73095">
        <ele>319.79998779297</ele>
        <time>2013-05-09T12:42:43Z</time>
      </trkpt>
      <trkpt lat="43.67463" lon="5.72982">
        <ele>338.79998779297</ele>
        <time>2013-05-09T12:43:09Z</time>
      </trkpt>
      <trkpt lat="43.67345" lon="5.72853">
        <ele>330.40002441406</ele>
        <time>2013-05-09T12:43:40Z</time>
      </trkpt>
      <trkpt lat="43.67338" lon="5.7282">
        <ele>342.09997558594</ele>
        <time>2013-05-09T12:44:07Z</time>
      </trkpt>
      <trkpt lat="43.67328" lon="5.7279">
        <ele>358.79998779297</ele>
        <time>2013-05-09T12:44:32Z</time>
      </trkpt>
      <trkpt lat="43.67304" lon="5.72762">
        <ele>370.70001220703</ele>
        <time>2013-05-09T12:44:57Z</time>
      </trkpt>
      <trkpt lat="43.6729" lon="5.72734">
        <ele>377.20001220703</ele>
        <time>2013-05-09T12:45:18Z</time>
      </trkpt>
      <trkpt lat="43.67255" lon="5.7271">
        <ele>384.70001220703</ele>
        <time>2013-05-09T12:45:40Z</time>
      </trkpt>
      <trkpt lat="43.67228" lon="5.72697">
        <ele>382.20001220703</ele>
        <time>2013-05-09T12:46:01Z</time>
      </trkpt>
      <trkpt lat="43.67193" lon="5.72693">
        <ele>376.59997558594</ele>
        <time>2013-05-09T12:46:30Z</time>
      </trkpt>
      <trkpt lat="43.67151" lon="5.72667">
        <ele>370.90002441406</ele>
        <time>2013-05-09T12:46:56Z</time>
      </trkpt>
      <trkpt lat="43.67143" lon="5.72624">
        <ele>387.70001220703</ele>
        <time>2013-05-09T12:47:21Z</time>
      </trkpt>
      <trkpt lat="43.67132" lon="5.72586">
        <ele>389.70001220703</ele>
        <time>2013-05-09T12:47:44Z</time>
      </trkpt>
      <trkpt lat="43.67127" lon="5.72539">
        <ele>395</ele>
        <time>2013-05-09T12:48:12Z</time>
      </trkpt>
      <trkpt lat="43.6713" lon="5.72486">
        <ele>391.90002441406</ele>
        <time>2013-05-09T12:48:39Z</time>
      </trkpt>
      <trkpt lat="43.67112" lon="5.72448">
        <ele>403.5</ele>
        <time>2013-05-09T12:49:07Z</time>
      </trkpt>
      <trkpt lat="43.67121" lon="5.72408">
        <ele>407.70001220703</ele>
        <time>2013-05-09T12:49:32Z</time>
      </trkpt>
      <trkpt lat="43.67118" lon="5.72357">
        <ele>414.20001220703</ele>
        <time>2013-05-09T12:49:59Z</time>
      </trkpt>
      <trkpt lat="43.67111" lon="5.72308">
        <ele>422.09997558594</ele>
        <time>2013-05-09T12:50:26Z</time>
      </trkpt>
      <trkpt lat="43.67102" lon="5.72259">
        <ele>431.90002441406</ele>
        <time>2013-05-09T12:50:52Z</time>
      </trkpt>
      <trkpt lat="43.67121" lon="5.72217">
        <ele>415.70001220703</ele>
        <time>2013-05-09T12:51:19Z</time>
      </trkpt>
      <trkpt lat="43.67141" lon="5.72166">
        <ele>409.79998779297</ele>
        <time>2013-05-09T12:51:52Z</time>
      </trkpt>
      <trkpt lat="43.67136" lon="5.72143">
        <ele>416</ele>
        <time>2013-05-09T12:52:19Z</time>
      </trkpt>
      <trkpt lat="43.67136" lon="5.72094">
        <ele>417.40002441406</ele>
        <time>2013-05-09T12:52:47Z</time>
      </trkpt>
      <trkpt lat="43.67126" lon="5.72056">
        <ele>423.79998779297</ele>
        <time>2013-05-09T12:53:16Z</time>
      </trkpt>
      <trkpt lat="43.67125" lon="5.7201">
        <ele>431.29998779297</ele>
        <time>2013-05-09T12:53:41Z</time>
      </trkpt>
      <trkpt lat="43.67119" lon="5.7198">
        <ele>445</ele>
        <time>2013-05-09T12:54:07Z</time>
      </trkpt>
      <trkpt lat="43.67108" lon="5.71957">
        <ele>450.70001220703</ele>
        <time>2013-05-09T12:54:33Z</time>
      </trkpt>
      <trkpt lat="43.67079" lon="5.71933">
        <ele>442.5</ele>
        <time>2013-05-09T12:54:58Z</time>
      </trkpt>
      <trkpt lat="43.67044" lon="5.71931">
        <ele>446</ele>
        <time>2013-05-09T12:55:26Z</time>
      </trkpt>
      <trkpt lat="43.67003" lon="5.71916">
        <ele>459.29998779297</ele>
        <time>2013-05-09T12:55:52Z</time>
      </trkpt>
      <trkpt lat="43.6698" lon="5.71899">
        <ele>461.20001220703</ele>
        <time>2013-05-09T12:56:20Z</time>
      </trkpt>
      <trkpt lat="43.66933" lon="5.71817">
        <ele>485</ele>
        <time>2013-05-09T12:56:49Z</time>
      </trkpt>
      <trkpt lat="43.66895" lon="5.71782">
        <ele>492.90002441406</ele>
        <time>2013-05-09T12:57:20Z</time>
      </trkpt>
      <trkpt lat="43.66872" lon="5.71737">
        <ele>489.59997558594</ele>
        <time>2013-05-09T12:57:50Z</time>
      </trkpt>
      <trkpt lat="43.6684" lon="5.71682">
        <ele>483.70001220703</ele>
        <time>2013-05-09T12:58:23Z</time>
      </trkpt>
      <trkpt lat="43.66786" lon="5.71621">
        <ele>445.79998779297</ele>
        <time>2013-05-09T12:58:48Z</time>
      </trkpt>
      <trkpt lat="43.66741" lon="5.71563">
        <ele>441.5</ele>
        <time>2013-05-09T12:59:15Z</time>
      </trkpt>
      <trkpt lat="43.66722" lon="5.71537">
        <ele>466.20001220703</ele>
        <time>2013-05-09T12:59:42Z</time>
      </trkpt>
      <trkpt lat="43.667" lon="5.71492">
        <ele>480.20001220703</ele>
        <time>2013-05-09T13:00:16Z</time>
      </trkpt>
      <trkpt lat="43.6668" lon="5.71444">
        <ele>495.90002441406</ele>
        <time>2013-05-09T13:00:48Z</time>
      </trkpt>
      <trkpt lat="43.66643" lon="5.71419">
        <ele>511.90002441406</ele>
        <time>2013-05-09T13:01:21Z</time>
      </trkpt>
      <trkpt lat="43.66588" lon="5.71406">
        <ele>501.79998779297</ele>
        <time>2013-05-09T13:01:53Z</time>
      </trkpt>
      <trkpt lat="43.66552" lon="5.7139">
        <ele>508.90002441406</ele>
        <time>2013-05-09T13:02:27Z</time>
      </trkpt>
      <trkpt lat="43.66554" lon="5.71348">
        <ele>506.09997558594</ele>
        <time>2013-05-09T13:03:00Z</time>
      </trkpt>
      <trkpt lat="43.66595" lon="5.71319">
        <ele>502.40002441406</ele>
        <time>2013-05-09T13:03:33Z</time>
      </trkpt>
      <trkpt lat="43.66627" lon="5.71301">
        <ele>493</ele>
        <time>2013-05-09T13:04:03Z</time>
      </trkpt>
      <trkpt lat="43.66666" lon="5.71273">
        <ele>497.5</ele>
        <time>2013-05-09T13:04:35Z</time>
      </trkpt>
      <trkpt lat="43.66703" lon="5.71246">
        <ele>503.79998779297</ele>
        <time>2013-05-09T13:05:09Z</time>
      </trkpt>
      <trkpt lat="43.66686" lon="5.71192">
        <ele>515</ele>
        <time>2013-05-09T13:05:42Z</time>
      </trkpt>
      <trkpt lat="43.6662" lon="5.71105">
        <ele>517.40002441406</ele>
        <time>2013-05-09T13:06:15Z</time>
      </trkpt>
      <trkpt lat="43.66557" lon="5.70988">
        <ele>527.40002441406</ele>
        <time>2013-05-09T13:06:52Z</time>
      </trkpt>
      <trkpt lat="43.66522" lon="5.70881">
        <ele>496.59997558594</ele>
        <time>2013-05-09T13:07:25Z</time>
      </trkpt>
      <trkpt lat="43.66493" lon="5.70817">
        <ele>466.29998779297</ele>
        <time>2013-05-09T13:07:58Z</time>
      </trkpt>
      <trkpt lat="43.66467" lon="5.70811">
        <ele>491</ele>
        <time>2013-05-09T13:08:29Z</time>
      </trkpt>
      <trkpt lat="43.66419" lon="5.70792">
        <ele>493.09997558594</ele>
        <time>2013-05-09T13:09:09Z</time>
      </trkpt>
      <trkpt lat="43.66377" lon="5.70771">
        <ele>511.40002441406</ele>
        <time>2013-05-09T13:09:47Z</time>
      </trkpt>
      <trkpt lat="43.66327" lon="5.70736">
        <ele>499.09997558594</ele>
        <time>2013-05-09T13:10:23Z</time>
      </trkpt>
      <trkpt lat="43.66285" lon="5.70762">
        <ele>489.09997558594</ele>
        <time>2013-05-09T13:10:53Z</time>
      </trkpt>
      <trkpt lat="43.66252" lon="5.70776">
        <ele>462.40002441406</ele>
        <time>2013-05-09T13:11:20Z</time>
      </trkpt>
      <trkpt lat="43.66214" lon="5.70813">
        <ele>472.20001220703</ele>
        <time>2013-05-09T13:11:57Z</time>
      </trkpt>
      <trkpt lat="43.66199" lon="5.70739">
        <ele>473.20001220703</ele>
        <time>2013-05-09T13:12:42Z</time>
      </trkpt>
      <trkpt lat="43.66254" lon="5.70548">
        <ele>499.40002441406</ele>
        <time>2013-05-09T13:13:28Z</time>
      </trkpt>
      <trkpt lat="43.66275" lon="5.70489">
        <ele>498.79998779297</ele>
        <time>2013-05-09T13:14:00Z</time>
      </trkpt>
      <trkpt lat="43.66294" lon="5.70396">
        <ele>481.29998779297</ele>
        <time>2013-05-09T13:14:45Z</time>
      </trkpt>
      <trkpt lat="43.66314" lon="5.70308">
        <ele>478.59997558594</ele>
        <time>2013-05-09T13:15:31Z</time>
      </trkpt>
      <trkpt lat="43.66332" lon="5.70241">
        <ele>494.40002441406</ele>
        <time>2013-05-09T13:16:06Z</time>
      </trkpt>
      <trkpt lat="43.66316" lon="5.7018">
        <ele>496.09997558594</ele>
        <time>2013-05-09T13:16:41Z</time>
      </trkpt>
      <trkpt lat="43.66279" lon="5.70136">
        <ele>489.5</ele>
        <time>2013-05-09T13:17:16Z</time>
      </trkpt>
      <trkpt lat="43.6626" lon="5.70083">
        <ele>486.20001220703</ele>
        <time>2013-05-09T13:17:51Z</time>
      </trkpt>
      <trkpt lat="43.66279" lon="5.70017">
        <ele>484.20001220703</ele>
        <time>2013-05-09T13:18:25Z</time>
      </trkpt>
      <trkpt lat="43.66294" lon="5.69952">
        <ele>483.09997558594</ele>
        <time>2013-05-09T13:19:00Z</time>
      </trkpt>
      <trkpt lat="43.66302" lon="5.69896">
        <ele>486.59997558594</ele>
        <time>2013-05-09T13:19:30Z</time>
      </trkpt>
      <trkpt lat="43.66282" lon="5.69843">
        <ele>486.70001220703</ele>
        <time>2013-05-09T13:20:05Z</time>
      </trkpt>
      <trkpt lat="43.66292" lon="5.69777">
        <ele>489.70001220703</ele>
        <time>2013-05-09T13:20:40Z</time>
      </trkpt>
      <trkpt lat="43.66296" lon="5.69707">
        <ele>492.20001220703</ele>
        <time>2013-05-09T13:21:15Z</time>
      </trkpt>
      <trkpt lat="43.66246" lon="5.69675">
        <ele>495.90002441406</ele>
        <time>2013-05-09T13:21:50Z</time>
      </trkpt>
      <trkpt lat="43.66196" lon="5.69647">
        <ele>496.09997558594</ele>
        <time>2013-05-09T13:22:24Z</time>
      </trkpt>
      <trkpt lat="43.66162" lon="5.69612">
        <ele>501.70001220703</ele>
        <time>2013-05-09T13:22:58Z</time>
      </trkpt>
      <trkpt lat="43.66116" lon="5.6963">
        <ele>493.79998779297</ele>
        <time>2013-05-09T13:23:26Z</time>
      </trkpt>
      <trkpt lat="43.66072" lon="5.69635">
        <ele>499.40002441406</ele>
        <time>2013-05-09T13:23:58Z</time>
      </trkpt>
      <trkpt lat="43.66019" lon="5.69615">
        <ele>504.09997558594</ele>
        <time>2013-05-09T13:24:33Z</time>
      </trkpt>
      <trkpt lat="43.65955" lon="5.69551">
        <ele>506.79998779297</ele>
        <time>2013-05-09T13:25:08Z</time>
      </trkpt>
      <trkpt lat="43.65912" lon="5.69491">
        <ele>509.59997558594</ele>
        <time>2013-05-09T13:25:42Z</time>
      </trkpt>
      <trkpt lat="43.65878" lon="5.69489">
        <ele>503.40002441406</ele>
        <time>2013-05-09T13:26:05Z</time>
      </trkpt>
      <trkpt lat="43.65878" lon="5.69539">
        <ele>497.90002441406</ele>
        <time>2013-05-09T13:26:32Z</time>
      </trkpt>
      <trkpt lat="43.65868" lon="5.69597">
        <ele>507.29998779297</ele>
        <time>2013-05-09T13:27:00Z</time>
      </trkpt>
      <trkpt lat="43.65859" lon="5.69643">
        <ele>507.59997558594</ele>
        <time>2013-05-09T13:27:25Z</time>
      </trkpt>
      <trkpt lat="43.65839" lon="5.69686">
        <ele>513.5</ele>
        <time>2013-05-09T13:27:48Z</time>
      </trkpt>
      <trkpt lat="43.65812" lon="5.69746">
        <ele>516.70001220703</ele>
        <time>2013-05-09T13:28:12Z</time>
      </trkpt>
      <trkpt lat="43.65731" lon="5.69866">
        <ele>521.59997558594</ele>
        <time>2013-05-09T13:28:35Z</time>
      </trkpt>
      <trkpt lat="43.65678" lon="5.69935">
        <ele>515.09997558594</ele>
        <time>2013-05-09T13:28:58Z</time>
      </trkpt>
      <trkpt lat="43.65645" lon="5.69952">
        <ele>521.70001220703</ele>
        <time>2013-05-09T13:29:23Z</time>
      </trkpt>
      <trkpt lat="43.65633" lon="5.69957">
        <ele>517.59997558594</ele>
        <time>2013-05-09T13:29:45Z</time>
      </trkpt>
      <trkpt lat="43.6561" lon="5.69985">
        <ele>524.69995117188</ele>
        <time>2013-05-09T13:30:45Z</time>
      </trkpt>
      <trkpt lat="43.65596" lon="5.70018">
        <ele>524.90002441406</ele>
        <time>2013-05-09T13:31:17Z</time>
      </trkpt>
      <trkpt lat="43.65579" lon="5.70055">
        <ele>527</ele>
        <time>2013-05-09T13:32:36Z</time>
      </trkpt>
      <trkpt lat="43.6554" lon="5.70075">
        <ele>528.09997558594</ele>
        <time>2013-05-09T13:33:00Z</time>
      </trkpt>
      <trkpt lat="43.65505" lon="5.7009">
        <ele>530.40002441406</ele>
        <time>2013-05-09T13:33:23Z</time>
      </trkpt>
      <trkpt lat="43.65464" lon="5.7008">
        <ele>539.59997558594</ele>
        <time>2013-05-09T13:33:50Z</time>
      </trkpt>
      <trkpt lat="43.65427" lon="5.70102">
        <ele>539.69995117188</ele>
        <time>2013-05-09T13:34:14Z</time>
      </trkpt>
      <trkpt lat="43.65398" lon="5.70127">
        <ele>540.40002441406</ele>
        <time>2013-05-09T13:34:39Z</time>
      </trkpt>
      <trkpt lat="43.65367" lon="5.70143">
        <ele>545.30004882812</ele>
        <time>2013-05-09T13:35:05Z</time>
      </trkpt>
      <trkpt lat="43.65331" lon="5.70137">
        <ele>543.90002441406</ele>
        <time>2013-05-09T13:35:28Z</time>
      </trkpt>
      <trkpt lat="43.65285" lon="5.70176">
        <ele>549.59997558594</ele>
        <time>2013-05-09T13:35:50Z</time>
      </trkpt>
      <trkpt lat="43.65188" lon="5.70192">
        <ele>558.40002441406</ele>
        <time>2013-05-09T13:36:14Z</time>
      </trkpt>
      <trkpt lat="43.65115" lon="5.70314">
        <ele>560.59997558594</ele>
        <time>2013-05-09T13:36:37Z</time>
      </trkpt>
      <trkpt lat="43.64999" lon="5.70333">
        <ele>573.30004882812</ele>
        <time>2013-05-09T13:37:05Z</time>
      </trkpt>
      <trkpt lat="43.64824" lon="5.70276">
        <ele>584</ele>
        <time>2013-05-09T13:37:40Z</time>
      </trkpt>
      <trkpt lat="43.64759" lon="5.70201">
        <ele>596.69995117188</ele>
        <time>2013-05-09T13:38:12Z</time>
      </trkpt>
      <trkpt lat="43.64722" lon="5.70183">
        <ele>602.90002441406</ele>
        <time>2013-05-09T13:38:40Z</time>
      </trkpt>
      <trkpt lat="43.64698" lon="5.70144">
        <ele>606.59997558594</ele>
        <time>2013-05-09T13:39:09Z</time>
      </trkpt>
      <trkpt lat="43.64657" lon="5.70119">
        <ele>614.59997558594</ele>
        <time>2013-05-09T13:39:40Z</time>
      </trkpt>
      <trkpt lat="43.64632" lon="5.70093">
        <ele>617.09997558594</ele>
        <time>2013-05-09T13:40:04Z</time>
      </trkpt>
      <trkpt lat="43.64598" lon="5.70058">
        <ele>621.59997558594</ele>
        <time>2013-05-09T13:40:33Z</time>
      </trkpt>
      <trkpt lat="43.64559" lon="5.70058">
        <ele>624</ele>
        <time>2013-05-09T13:40:59Z</time>
      </trkpt>
      <trkpt lat="43.6452" lon="5.70076">
        <ele>628.19995117188</ele>
        <time>2013-05-09T13:41:28Z</time>
      </trkpt>
      <trkpt lat="43.64489" lon="5.70091">
        <ele>631.80004882812</ele>
        <time>2013-05-09T13:41:53Z</time>
      </trkpt>
      <trkpt lat="43.64494" lon="5.70065">
        <ele>639.69995117188</ele>
        <time>2013-05-09T13:42:28Z</time>
      </trkpt>
      <trkpt lat="43.64517" lon="5.70023">
        <ele>643.59997558594</ele>
        <time>2013-05-09T13:42:57Z</time>
      </trkpt>
      <trkpt lat="43.64489" lon="5.70038">
        <ele>644.09997558594</ele>
        <time>2013-05-09T13:43:20Z</time>
      </trkpt>
      <trkpt lat="43.64455" lon="5.70054">
        <ele>644.80004882812</ele>
        <time>2013-05-09T13:43:46Z</time>
      </trkpt>
      <trkpt lat="43.64422" lon="5.70075">
        <ele>652.69995117188</ele>
        <time>2013-05-09T13:44:13Z</time>
      </trkpt>
      <trkpt lat="43.64403" lon="5.70118">
        <ele>647.30004882812</ele>
        <time>2013-05-09T13:44:39Z</time>
      </trkpt>
      <trkpt lat="43.6439" lon="5.70112">
        <ele>663</ele>
        <time>2013-05-09T13:45:06Z</time>
      </trkpt>
      <trkpt lat="43.64384" lon="5.70069">
        <ele>664.5</ele>
        <time>2013-05-09T13:45:30Z</time>
      </trkpt>
      <trkpt lat="43.64394" lon="5.70027">
        <ele>670.30004882812</ele>
        <time>2013-05-09T13:46:02Z</time>
      </trkpt>
      <trkpt lat="43.64412" lon="5.69976">
        <ele>679.40002441406</ele>
        <time>2013-05-09T13:46:34Z</time>
      </trkpt>
      <trkpt lat="43.6441" lon="5.69922">
        <ele>686.19995117188</ele>
        <time>2013-05-09T13:47:06Z</time>
      </trkpt>
      <trkpt lat="43.64392" lon="5.69892">
        <ele>683.90002441406</ele>
        <time>2013-05-09T13:47:30Z</time>
      </trkpt>
      <trkpt lat="43.64352" lon="5.69879">
        <ele>691.80004882812</ele>
        <time>2013-05-09T13:48:04Z</time>
      </trkpt>
      <trkpt lat="43.64322" lon="5.69908">
        <ele>703</ele>
        <time>2013-05-09T13:48:35Z</time>
      </trkpt>
      <trkpt lat="43.64289" lon="5.69907">
        <ele>706.59997558594</ele>
        <time>2013-05-09T13:49:04Z</time>
      </trkpt>
      <trkpt lat="43.64262" lon="5.69894">
        <ele>710.09997558594</ele>
        <time>2013-05-09T13:49:29Z</time>
      </trkpt>
      <trkpt lat="43.64254" lon="5.69853">
        <ele>716</ele>
        <time>2013-05-09T13:50:04Z</time>
      </trkpt>
      <trkpt lat="43.64267" lon="5.69802">
        <ele>707.69995117188</ele>
        <time>2013-05-09T13:50:38Z</time>
      </trkpt>
      <trkpt lat="43.64272" lon="5.69786">
        <ele>717.30004882812</ele>
        <time>2013-05-09T13:51:12Z</time>
      </trkpt>
      <trkpt lat="43.6428" lon="5.69779">
        <ele>713.40002441406</ele>
        <time>2013-05-09T13:52:06Z</time>
      </trkpt>
      <trkpt lat="43.64271" lon="5.698">
        <ele>712.30004882812</ele>
        <time>2013-05-09T13:54:24Z</time>
      </trkpt>
      <trkpt lat="43.64258" lon="5.69836">
        <ele>705.40002441406</ele>
        <time>2013-05-09T13:54:58Z</time>
      </trkpt>
      <trkpt lat="43.64258" lon="5.69859">
        <ele>720.40002441406</ele>
        <time>2013-05-09T13:56:40Z</time>
      </trkpt>
      <trkpt lat="43.64257" lon="5.69845">
        <ele>715.19995117188</ele>
        <time>2013-05-09T13:58:17Z</time>
      </trkpt>
      <trkpt lat="43.64242" lon="5.69845">
        <ele>716.69995117188</ele>
        <time>2013-05-09T13:59:35Z</time>
      </trkpt>
      <trkpt lat="43.64257" lon="5.69848">
        <ele>714.69995117188</ele>
        <time>2013-05-09T14:00:07Z</time>
      </trkpt>
      <trkpt lat="43.64252" lon="5.6986">
        <ele>702.30004882812</ele>
        <time>2013-05-09T14:00:41Z</time>
      </trkpt>
      <trkpt lat="43.6426" lon="5.6985">
        <ele>715.59997558594</ele>
        <time>2013-05-09T14:01:16Z</time>
      </trkpt>
      <trkpt lat="43.6426" lon="5.69888">
        <ele>708.5</ele>
        <time>2013-05-09T14:06:21Z</time>
      </trkpt>
      <trkpt lat="43.64288" lon="5.69903">
        <ele>704.59997558594</ele>
        <time>2013-05-09T14:06:55Z</time>
      </trkpt>
      <trkpt lat="43.64326" lon="5.69908">
        <ele>696.80004882812</ele>
        <time>2013-05-09T14:07:29Z</time>
      </trkpt>
      <trkpt lat="43.64361" lon="5.69876">
        <ele>688.40002441406</ele>
        <time>2013-05-09T14:08:04Z</time>
      </trkpt>
      <trkpt lat="43.64393" lon="5.69897">
        <ele>681.80004882812</ele>
        <time>2013-05-09T14:08:38Z</time>
      </trkpt>
      <trkpt lat="43.64413" lon="5.69944">
        <ele>677.90002441406</ele>
        <time>2013-05-09T14:09:12Z</time>
      </trkpt>
      <trkpt lat="43.64402" lon="5.69997">
        <ele>675</ele>
        <time>2013-05-09T14:09:47Z</time>
      </trkpt>
      <trkpt lat="43.64386" lon="5.70048">
        <ele>665.19995117188</ele>
        <time>2013-05-09T14:10:22Z</time>
      </trkpt>
      <trkpt lat="43.64388" lon="5.70102">
        <ele>656.19995117188</ele>
        <time>2013-05-09T14:10:56Z</time>
      </trkpt>
      <trkpt lat="43.64413" lon="5.70119">
        <ele>649.40002441406</ele>
        <time>2013-05-09T14:11:30Z</time>
      </trkpt>
      <trkpt lat="43.64427" lon="5.70076">
        <ele>652.5</ele>
        <time>2013-05-09T14:11:57Z</time>
      </trkpt>
      <trkpt lat="43.64472" lon="5.70056">
        <ele>649.69995117188</ele>
        <time>2013-05-09T14:12:32Z</time>
      </trkpt>
      <trkpt lat="43.64515" lon="5.70024">
        <ele>641.40002441406</ele>
        <time>2013-05-09T14:13:06Z</time>
      </trkpt>
      <trkpt lat="43.645" lon="5.70051">
        <ele>635.80004882812</ele>
        <time>2013-05-09T14:13:31Z</time>
      </trkpt>
      <trkpt lat="43.64477" lon="5.70091">
        <ele>644.5</ele>
        <time>2013-05-09T14:14:06Z</time>
      </trkpt>
      <trkpt lat="43.64531" lon="5.70086">
        <ele>623.59997558594</ele>
        <time>2013-05-09T14:14:40Z</time>
      </trkpt>
      <trkpt lat="43.64566" lon="5.70074">
        <ele>622.09997558594</ele>
        <time>2013-05-09T14:15:08Z</time>
      </trkpt>
      <trkpt lat="43.64607" lon="5.70068">
        <ele>622.69995117188</ele>
        <time>2013-05-09T14:15:42Z</time>
      </trkpt>
      <trkpt lat="43.64642" lon="5.70112">
        <ele>616.80004882812</ele>
        <time>2013-05-09T14:16:16Z</time>
      </trkpt>
      <trkpt lat="43.64676" lon="5.70141">
        <ele>626.30004882812</ele>
        <time>2013-05-09T14:16:50Z</time>
      </trkpt>
      <trkpt lat="43.64705" lon="5.70167">
        <ele>627.5</ele>
        <time>2013-05-09T14:17:24Z</time>
      </trkpt>
      <trkpt lat="43.64758" lon="5.70211">
        <ele>620</ele>
        <time>2013-05-09T14:18:09Z</time>
      </trkpt>
      <trkpt lat="43.64777" lon="5.70229">
        <ele>612.59997558594</ele>
        <time>2013-05-09T14:18:54Z</time>
      </trkpt>
      <trkpt lat="43.64823" lon="5.70279">
        <ele>619.09997558594</ele>
        <time>2013-05-09T14:19:36Z</time>
      </trkpt>
      <trkpt lat="43.64851" lon="5.70301">
        <ele>652</ele>
        <time>2013-05-09T14:20:10Z</time>
      </trkpt>
      <trkpt lat="43.64903" lon="5.70333">
        <ele>604.30004882812</ele>
        <time>2013-05-09T14:20:44Z</time>
      </trkpt>
      <trkpt lat="43.64942" lon="5.70321">
        <ele>628.5</ele>
        <time>2013-05-09T14:21:18Z</time>
      </trkpt>
      <trkpt lat="43.6498" lon="5.70324">
        <ele>660.40002441406</ele>
        <time>2013-05-09T14:22:00Z</time>
      </trkpt>
      <trkpt lat="43.65031" lon="5.7037">
        <ele>604</ele>
        <time>2013-05-09T14:22:35Z</time>
      </trkpt>
      <trkpt lat="43.65043" lon="5.70386">
        <ele>582.19995117188</ele>
        <time>2013-05-09T14:23:10Z</time>
      </trkpt>
      <trkpt lat="43.6506" lon="5.7039">
        <ele>580</ele>
        <time>2013-05-09T14:23:45Z</time>
      </trkpt>
      <trkpt lat="43.65115" lon="5.70363">
        <ele>558.40002441406</ele>
        <time>2013-05-09T14:24:22Z</time>
      </trkpt>
      <trkpt lat="43.65145" lon="5.70293">
        <ele>552.19995117188</ele>
        <time>2013-05-09T14:24:57Z</time>
      </trkpt>
      <trkpt lat="43.65167" lon="5.70231">
        <ele>562.40002441406</ele>
        <time>2013-05-09T14:25:30Z</time>
      </trkpt>
      <trkpt lat="43.65196" lon="5.70203">
        <ele>557</ele>
        <time>2013-05-09T14:26:04Z</time>
      </trkpt>
      <trkpt lat="43.65247" lon="5.70204">
        <ele>547.19995117188</ele>
        <time>2013-05-09T14:26:40Z</time>
      </trkpt>
      <trkpt lat="43.65289" lon="5.70178">
        <ele>549.40002441406</ele>
        <time>2013-05-09T14:27:14Z</time>
      </trkpt>
      <trkpt lat="43.65327" lon="5.7014">
        <ele>547.30004882812</ele>
        <time>2013-05-09T14:27:48Z</time>
      </trkpt>
      <trkpt lat="43.65372" lon="5.70147">
        <ele>553.19995117188</ele>
        <time>2013-05-09T14:28:22Z</time>
      </trkpt>
      <trkpt lat="43.65415" lon="5.70121">
        <ele>540.59997558594</ele>
        <time>2013-05-09T14:28:56Z</time>
      </trkpt>
      <trkpt lat="43.65449" lon="5.70107">
        <ele>562.40002441406</ele>
        <time>2013-05-09T14:29:31Z</time>
      </trkpt>
      <trkpt lat="43.65496" lon="5.70116">
        <ele>559.40002441406</ele>
        <time>2013-05-09T14:30:06Z</time>
      </trkpt>
      <trkpt lat="43.65539" lon="5.70078">
        <ele>560</ele>
        <time>2013-05-09T14:30:41Z</time>
      </trkpt>
      <trkpt lat="43.65593" lon="5.70045">
        <ele>524.30004882812</ele>
        <time>2013-05-09T14:31:15Z</time>
      </trkpt>
      <trkpt lat="43.65623" lon="5.69984">
        <ele>526.69995117188</ele>
        <time>2013-05-09T14:31:50Z</time>
      </trkpt>
      <trkpt lat="43.65661" lon="5.69951">
        <ele>536</ele>
        <time>2013-05-09T14:32:24Z</time>
      </trkpt>
      <trkpt lat="43.65701" lon="5.69927">
        <ele>520.70001220703</ele>
        <time>2013-05-09T14:32:58Z</time>
      </trkpt>
      <trkpt lat="43.65731" lon="5.69869">
        <ele>518.70001220703</ele>
        <time>2013-05-09T14:33:33Z</time>
      </trkpt>
      <trkpt lat="43.65765" lon="5.69822">
        <ele>519.29998779297</ele>
        <time>2013-05-09T14:34:08Z</time>
      </trkpt>
      <trkpt lat="43.658" lon="5.69775">
        <ele>509.70001220703</ele>
        <time>2013-05-09T14:34:43Z</time>
      </trkpt>
      <trkpt lat="43.65838" lon="5.69724">
        <ele>515.29998779297</ele>
        <time>2013-05-09T14:35:17Z</time>
      </trkpt>
      <trkpt lat="43.65859" lon="5.69663">
        <ele>512.59997558594</ele>
        <time>2013-05-09T14:35:51Z</time>
      </trkpt>
      <trkpt lat="43.65875" lon="5.69604">
        <ele>506.09997558594</ele>
        <time>2013-05-09T14:36:26Z</time>
      </trkpt>
      <trkpt lat="43.65885" lon="5.69556">
        <ele>504.29998779297</ele>
        <time>2013-05-09T14:36:55Z</time>
      </trkpt>
      <trkpt lat="43.65888" lon="5.69511">
        <ele>503.79998779297</ele>
        <time>2013-05-09T14:37:18Z</time>
      </trkpt>
      <trkpt lat="43.65895" lon="5.69467">
        <ele>502.79998779297</ele>
        <time>2013-05-09T14:37:42Z</time>
      </trkpt>
      <trkpt lat="43.65912" lon="5.69424">
        <ele>503.59997558594</ele>
        <time>2013-05-09T14:38:05Z</time>
      </trkpt>
      <trkpt lat="43.65926" lon="5.69388">
        <ele>507.5</ele>
        <time>2013-05-09T14:38:28Z</time>
      </trkpt>
      <trkpt lat="43.65951" lon="5.69358">
        <ele>501.20001220703</ele>
        <time>2013-05-09T14:38:51Z</time>
      </trkpt>
      <trkpt lat="43.65952" lon="5.6932">
        <ele>495.79998779297</ele>
        <time>2013-05-09T14:39:14Z</time>
      </trkpt>
      <trkpt lat="43.65938" lon="5.69276">
        <ele>496.59997558594</ele>
        <time>2013-05-09T14:39:38Z</time>
      </trkpt>
      <trkpt lat="43.65933" lon="5.69231">
        <ele>494.09997558594</ele>
        <time>2013-05-09T14:40:05Z</time>
      </trkpt>
      <trkpt lat="43.65953" lon="5.69215">
        <ele>495.40002441406</ele>
        <time>2013-05-09T14:40:30Z</time>
      </trkpt>
      <trkpt lat="43.65947" lon="5.69196">
        <ele>494</ele>
        <time>2013-05-09T14:40:53Z</time>
      </trkpt>
      <trkpt lat="43.65975" lon="5.69147">
        <ele>501.09997558594</ele>
        <time>2013-05-09T14:41:27Z</time>
      </trkpt>
      <trkpt lat="43.66" lon="5.69096">
        <ele>491.09997558594</ele>
        <time>2013-05-09T14:41:52Z</time>
      </trkpt>
      <trkpt lat="43.66019" lon="5.69061">
        <ele>490.29998779297</ele>
        <time>2013-05-09T14:42:15Z</time>
      </trkpt>
      <trkpt lat="43.66042" lon="5.69027">
        <ele>488.59997558594</ele>
        <time>2013-05-09T14:42:38Z</time>
      </trkpt>
      <trkpt lat="43.66066" lon="5.68975">
        <ele>491.90002441406</ele>
        <time>2013-05-09T14:43:12Z</time>
      </trkpt>
      <trkpt lat="43.66121" lon="5.69015">
        <ele>490.29998779297</ele>
        <time>2013-05-09T14:43:47Z</time>
      </trkpt>
      <trkpt lat="43.66212" lon="5.6911">
        <ele>500.79998779297</ele>
        <time>2013-05-09T14:44:17Z</time>
      </trkpt>
      <trkpt lat="43.66242" lon="5.69083">
        <ele>485.70001220703</ele>
        <time>2013-05-09T14:44:51Z</time>
      </trkpt>
      <trkpt lat="43.66272" lon="5.69047">
        <ele>482.29998779297</ele>
        <time>2013-05-09T14:45:14Z</time>
      </trkpt>
      <trkpt lat="43.66291" lon="5.69025">
        <ele>490.29998779297</ele>
        <time>2013-05-09T14:45:44Z</time>
      </trkpt>
      <trkpt lat="43.66323" lon="5.68998">
        <ele>489.90002441406</ele>
        <time>2013-05-09T14:46:07Z</time>
      </trkpt>
      <trkpt lat="43.66354" lon="5.68949">
        <ele>484.59997558594</ele>
        <time>2013-05-09T14:46:35Z</time>
      </trkpt>
      <trkpt lat="43.66384" lon="5.68908">
        <ele>486.90002441406</ele>
        <time>2013-05-09T14:47:06Z</time>
      </trkpt>
      <trkpt lat="43.66409" lon="5.68867">
        <ele>480.5</ele>
        <time>2013-05-09T14:47:31Z</time>
      </trkpt>
      <trkpt lat="43.66465" lon="5.68911">
        <ele>475.20001220703</ele>
        <time>2013-05-09T14:48:06Z</time>
      </trkpt>
      <trkpt lat="43.6651" lon="5.68953">
        <ele>473.90002441406</ele>
        <time>2013-05-09T14:48:41Z</time>
      </trkpt>
      <trkpt lat="43.66536" lon="5.68905">
        <ele>476.90002441406</ele>
        <time>2013-05-09T14:49:16Z</time>
      </trkpt>
      <trkpt lat="43.66562" lon="5.6884">
        <ele>475.29998779297</ele>
        <time>2013-05-09T14:49:51Z</time>
      </trkpt>
      <trkpt lat="43.66582" lon="5.68776">
        <ele>472.20001220703</ele>
        <time>2013-05-09T14:50:26Z</time>
      </trkpt>
      <trkpt lat="43.66602" lon="5.68716">
        <ele>469</ele>
        <time>2013-05-09T14:51:01Z</time>
      </trkpt>
      <trkpt lat="43.66626" lon="5.68653">
        <ele>468.70001220703</ele>
        <time>2013-05-09T14:51:36Z</time>
      </trkpt>
      <trkpt lat="43.66653" lon="5.68588">
        <ele>471.40002441406</ele>
        <time>2013-05-09T14:52:11Z</time>
      </trkpt>
      <trkpt lat="43.66689" lon="5.68537">
        <ele>473.79998779297</ele>
        <time>2013-05-09T14:52:46Z</time>
      </trkpt>
      <trkpt lat="43.66729" lon="5.68488">
        <ele>466.79998779297</ele>
        <time>2013-05-09T14:53:21Z</time>
      </trkpt>
      <trkpt lat="43.66762" lon="5.68434">
        <ele>468.59997558594</ele>
        <time>2013-05-09T14:53:56Z</time>
      </trkpt>
      <trkpt lat="43.66799" lon="5.68415">
        <ele>468.59997558594</ele>
        <time>2013-05-09T14:54:31Z</time>
      </trkpt>
      <trkpt lat="43.66839" lon="5.68383">
        <ele>460.59997558594</ele>
        <time>2013-05-09T14:55:06Z</time>
      </trkpt>
      <trkpt lat="43.66863" lon="5.68314">
        <ele>463.70001220703</ele>
        <time>2013-05-09T14:55:41Z</time>
      </trkpt>
      <trkpt lat="43.66858" lon="5.68246">
        <ele>468</ele>
        <time>2013-05-09T14:56:16Z</time>
      </trkpt>
      <trkpt lat="43.66853" lon="5.68188">
        <ele>471.59997558594</ele>
        <time>2013-05-09T14:56:49Z</time>
      </trkpt>
      <trkpt lat="43.66857" lon="5.68153">
        <ele>474.40002441406</ele>
        <time>2013-05-09T14:57:23Z</time>
      </trkpt>
      <trkpt lat="43.66847" lon="5.68192">
        <ele>470.5</ele>
        <time>2013-05-09T14:57:57Z</time>
      </trkpt>
      <trkpt lat="43.6685" lon="5.68255">
        <ele>466.09997558594</ele>
        <time>2013-05-09T14:58:32Z</time>
      </trkpt>
      <trkpt lat="43.66883" lon="5.68307">
        <ele>464.70001220703</ele>
        <time>2013-05-09T14:59:07Z</time>
      </trkpt>
      <trkpt lat="43.66927" lon="5.68316">
        <ele>473</ele>
        <time>2013-05-09T14:59:41Z</time>
      </trkpt>
      <trkpt lat="43.66962" lon="5.68285">
        <ele>488.09997558594</ele>
        <time>2013-05-09T15:00:16Z</time>
      </trkpt>
      <trkpt lat="43.66998" lon="5.68253">
        <ele>491</ele>
        <time>2013-05-09T15:00:50Z</time>
      </trkpt>
      <trkpt lat="43.67021" lon="5.68198">
        <ele>506.20001220703</ele>
        <time>2013-05-09T15:01:25Z</time>
      </trkpt>
      <trkpt lat="43.67063" lon="5.68161">
        <ele>493.40002441406</ele>
        <time>2013-05-09T15:01:59Z</time>
      </trkpt>
      <trkpt lat="43.67106" lon="5.68133">
        <ele>496.79998779297</ele>
        <time>2013-05-09T15:02:33Z</time>
      </trkpt>
      <trkpt lat="43.67142" lon="5.68096">
        <ele>513.09997558594</ele>
        <time>2013-05-09T15:03:07Z</time>
      </trkpt>
      <trkpt lat="43.67183" lon="5.68068">
        <ele>520.79998779297</ele>
        <time>2013-05-09T15:03:42Z</time>
      </trkpt>
      <trkpt lat="43.67214" lon="5.68019">
        <ele>512.29998779297</ele>
        <time>2013-05-09T15:04:16Z</time>
      </trkpt>
      <trkpt lat="43.67248" lon="5.67956">
        <ele>489.59997558594</ele>
        <time>2013-05-09T15:04:50Z</time>
      </trkpt>
      <trkpt lat="43.67261" lon="5.67906">
        <ele>491.5</ele>
        <time>2013-05-09T15:05:24Z</time>
      </trkpt>
      <trkpt lat="43.67286" lon="5.67847">
        <ele>475.20001220703</ele>
        <time>2013-05-09T15:05:58Z</time>
      </trkpt>
      <trkpt lat="43.67321" lon="5.67856">
        <ele>495.40002441406</ele>
        <time>2013-05-09T15:06:32Z</time>
      </trkpt>
      <trkpt lat="43.67364" lon="5.67857">
        <ele>511.29998779297</ele>
        <time>2013-05-09T15:07:06Z</time>
      </trkpt>
      <trkpt lat="43.67415" lon="5.67882">
        <ele>503.20001220703</ele>
        <time>2013-05-09T15:07:39Z</time>
      </trkpt>
      <trkpt lat="43.67467" lon="5.67891">
        <ele>487.5</ele>
        <time>2013-05-09T15:08:14Z</time>
      </trkpt>
      <trkpt lat="43.67475" lon="5.67847">
        <ele>474.09997558594</ele>
        <time>2013-05-09T15:08:49Z</time>
      </trkpt>
      <trkpt lat="43.67446" lon="5.67801">
        <ele>473.5</ele>
        <time>2013-05-09T15:09:23Z</time>
      </trkpt>
      <trkpt lat="43.67453" lon="5.67791">
        <ele>489.09997558594</ele>
        <time>2013-05-09T15:10:00Z</time>
      </trkpt>
      <trkpt lat="43.67466" lon="5.67737">
        <ele>480.5</ele>
        <time>2013-05-09T15:10:34Z</time>
      </trkpt>
      <trkpt lat="43.67484" lon="5.67697">
        <ele>473.29998779297</ele>
        <time>2013-05-09T15:11:08Z</time>
      </trkpt>
      <trkpt lat="43.67495" lon="5.67666">
        <ele>471.79998779297</ele>
        <time>2013-05-09T15:11:43Z</time>
      </trkpt>
      <trkpt lat="43.67511" lon="5.67683">
        <ele>473.40002441406</ele>
        <time>2013-05-09T15:12:17Z</time>
      </trkpt>
      <trkpt lat="43.67551" lon="5.67705">
        <ele>476.59997558594</ele>
        <time>2013-05-09T15:12:51Z</time>
      </trkpt>
      <trkpt lat="43.67596" lon="5.67724">
        <ele>467.29998779297</ele>
        <time>2013-05-09T15:13:25Z</time>
      </trkpt>
      <trkpt lat="43.67618" lon="5.67749">
        <ele>472.40002441406</ele>
        <time>2013-05-09T15:14:00Z</time>
      </trkpt>
      <trkpt lat="43.67662" lon="5.67781">
        <ele>460.09997558594</ele>
        <time>2013-05-09T15:14:35Z</time>
      </trkpt>
      <trkpt lat="43.67686" lon="5.67786">
        <ele>460.40002441406</ele>
        <time>2013-05-09T15:15:09Z</time>
      </trkpt>
      <trkpt lat="43.67712" lon="5.67749">
        <ele>501.40002441406</ele>
        <time>2013-05-09T15:15:44Z</time>
      </trkpt>
      <trkpt lat="43.67721" lon="5.67701">
        <ele>485.29998779297</ele>
        <time>2013-05-09T15:16:19Z</time>
      </trkpt>
      <trkpt lat="43.67718" lon="5.67647">
        <ele>473.40002441406</ele>
        <time>2013-05-09T15:16:53Z</time>
      </trkpt>
      <trkpt lat="43.67712" lon="5.67595">
        <ele>456.70001220703</ele>
        <time>2013-05-09T15:17:28Z</time>
      </trkpt>
      <trkpt lat="43.67708" lon="5.67479">
        <ele>456.29998779297</ele>
        <time>2013-05-09T15:18:28Z</time>
      </trkpt>
      <trkpt lat="43.67704" lon="5.67424">
        <ele>466.40002441406</ele>
        <time>2013-05-09T15:19:03Z</time>
      </trkpt>
      <trkpt lat="43.67735" lon="5.67424">
        <ele>485.20001220703</ele>
        <time>2013-05-09T15:19:37Z</time>
      </trkpt>
      <trkpt lat="43.6777" lon="5.67453">
        <ele>497.79998779297</ele>
        <time>2013-05-09T15:20:12Z</time>
      </trkpt>
      <trkpt lat="43.67801" lon="5.67447">
        <ele>489.5</ele>
        <time>2013-05-09T15:21:55Z</time>
      </trkpt>
      <trkpt lat="43.67815" lon="5.67454">
        <ele>460.70001220703</ele>
        <time>2013-05-09T15:23:03Z</time>
      </trkpt>
    </trkseg>
  </trk>
</gpx>